KBEC/BEC METAR and TAF weather

Enter ICAO airport designator
Station Type Date Time Source
KBEC METAR 2023/01/30 11:15 UTC NOAA

KBEC 301115Z AUTO 01012G18KT 10SM OVC029 M11/M17 A3039 RMK AO2 T11101169


Station Type Date Time Source
KBEC Decoded METAR 2023/01/30 11:15 UTC NOAA

Station name not available
Jan 30, 2023 - 06:15 AM EST / 2023.01.30 1115 UTC
Wind: from the N (010 degrees) at 14 MPH (12 KT) gusting to 21 MPH (18 KT):0
Visibility: 10 mile(s):0
Sky conditions: overcast
Temperature: 12.2 F (-11.0 C)
Windchill: -4 F (-20 C):1
Dew Point: 1.6 F (-16.9 C)
Relative Humidity: 61%
Pressure (altimeter): 30.39 in. Hg (1029 hPa)
ob: KBEC 301115Z AUTO 01012G18KT 10SM OVC029 M11/M17 A3039 RMK AO2 T11101169
cycle: 11

Station Type Date Time Source
KBEC TAF UTC NOAA

Error!

Example: see airport list